createdAt,value
2022-12-23T00:01:19.755Z,95388.63
2022-12-23T00:03:46.368Z,95404.00
2022-12-23T00:06:16.729Z,95392.47
2022-12-23T00:08:44.400Z,95392.13
2022-12-23T00:11:15.819Z,95395.34
2022-12-23T00:13:42.616Z,95392.47
2022-12-23T00:16:12.602Z,95394.03
2022-12-23T00:18:40.494Z,95403.13
2022-12-23T00:21:13.991Z,95392.09
2022-12-23T00:23:43.040Z,95386.88
2022-12-23T00:26:22.125Z,95384.09
2022-12-23T00:28:49.040Z,95378.09
2022-12-23T00:31:15.856Z,95374.16
2022-12-23T00:33:44.790Z,95380.38
2022-12-23T00:36:22.396Z,95364.25
2022-12-23T00:38:49.056Z,95362.28
2022-12-23T00:41:18.426Z,95374.75
2022-12-23T00:43:44.863Z,95368.75
2022-12-23T00:46:11.349Z,95366.69
2022-12-23T00:48:37.793Z,95374.66
2022-12-23T00:51:04.408Z,95363.28
2022-12-23T00:53:30.912Z,95374.34
2022-12-23T00:55:57.390Z,95365.09
2022-12-23T00:58:24.454Z,95371.19
2022-12-23T01:00:53.293Z,95365.84
2022-12-23T01:03:19.787Z,95366.00
2022-12-23T01:05:46.326Z,95380.28
2022-12-23T01:08:12.771Z,95377.28
2022-12-23T01:10:40.453Z,95376.28
2022-12-23T01:13:07.066Z,95378.81
2022-12-23T01:15:33.703Z,95380.19
2022-12-23T01:18:00.235Z,95377.09
2022-12-23T01:20:26.728Z,95377.78
2022-12-23T01:22:53.184Z,95378.56
2022-12-23T01:25:19.754Z,95388.56
2022-12-23T01:27:46.197Z,95380.03
2022-12-23T01:30:12.742Z,95385.19
2022-12-23T01:32:39.297Z,95385.13
2022-12-23T01:35:05.880Z,95388.72
2022-12-23T01:37:32.321Z,95390.09
2022-12-23T01:39:58.793Z,95395.28
2022-12-23T01:42:25.831Z,95397.84
2022-12-23T01:44:59.116Z,95386.06
2022-12-23T01:47:44.834Z,95383.63
2022-12-23T01:50:19.263Z,95392.22
2022-12-23T01:52:49.738Z,95396.00
2022-12-23T01:55:23.184Z,95397.88
2022-12-23T01:57:51.392Z,95391.38
2022-12-23T02:00:17.998Z,95394.66
2022-12-23T02:02:46.508Z,95384.59
2022-12-23T02:05:13.866Z,95380.59
2022-12-23T02:07:40.609Z,95386.75
2022-12-23T02:10:08.129Z,95390.69
2022-12-23T02:12:49.840Z,95376.59
2022-12-23T02:15:31.379Z,95371.94
2022-12-23T02:18:33.100Z,95384.16
2022-12-23T02:21:15.616Z,95371.72
2022-12-23T02:24:01.645Z,95379.50
2022-12-23T02:27:02.169Z,95381.34
2022-12-23T02:29:28.584Z,95385.81
2022-12-23T02:32:15.790Z,95369.88
2022-12-23T02:34:58.318Z,95366.91
2022-12-23T02:37:43.541Z,95370.53
2022-12-23T02:40:32.649Z,95389.31
2022-12-23T02:43:19.787Z,95386.00
2022-12-23T02:46:04.450Z,95380.13
2022-12-23T02:48:57.009Z,95387.09
2022-12-23T02:51:30.914Z,95377.00
2022-12-23T02:54:03.725Z,95374.72
2022-12-23T02:56:35.189Z,95386.88
2022-12-23T02:59:09.125Z,95388.34
2022-12-23T03:01:37.213Z,95381.22
2022-12-23T03:04:06.579Z,95359.56
2022-12-23T03:06:41.134Z,95371.56
2022-12-23T03:09:08.058Z,95393.19
2022-12-23T03:12:01.467Z,95385.63
2022-12-23T03:14:59.637Z,95374.22
2022-12-23T03:17:32.247Z,95372.50
2022-12-23T03:20:26.916Z,95368.72
2022-12-23T03:23:08.151Z,95365.09
2022-12-23T03:25:52.131Z,95359.88
2022-12-23T03:28:28.619Z,95359.97
2022-12-23T03:30:59.516Z,95357.69
2022-12-23T03:33:35.350Z,95355.22
2022-12-23T03:36:31.515Z,95349.38
2022-12-23T03:39:02.280Z,95359.19
2022-12-23T03:41:35.941Z,95357.19
2022-12-23T03:44:11.821Z,95355.19
2022-12-23T03:46:58.944Z,95354.06
2022-12-23T03:49:35.562Z,95350.03
2022-12-23T03:52:21.157Z,95345.38
2022-12-23T03:54:54.367Z,95348.13
2022-12-23T03:57:29.248Z,95337.56
2022-12-23T03:59:56.167Z,95348.13
2022-12-23T04:02:37.773Z,95349.13
2022-12-23T04:05:19.626Z,95346.63
2022-12-23T04:07:49.237Z,95347.88
2022-12-23T04:10:16.126Z,95354.41
2022-12-23T04:13:02.642Z,95352.41
2022-12-23T04:15:40.548Z,95352.03
2022-12-23T04:18:22.742Z,95349.78
2022-12-23T04:21:08.871Z,95345.88
2022-12-23T04:23:35.437Z,95352.78
2022-12-23T04:26:01.915Z,95341.84
2022-12-23T04:28:28.393Z,95347.06
2022-12-23T04:30:54.974Z,95346.78
2022-12-23T04:33:21.488Z,95338.28
2022-12-23T04:35:47.967Z,95345.25
2022-12-23T04:38:14.437Z,95344.06
2022-12-23T04:40:40.923Z,95344.25
2022-12-23T04:43:07.400Z,95342.88
2022-12-23T04:45:33.845Z,95350.53
2022-12-23T04:48:00.323Z,95357.84
2022-12-23T04:50:26.778Z,95354.41
2022-12-23T04:52:53.289Z,95367.75
2022-12-23T04:55:19.762Z,95370.41
2022-12-23T04:57:46.205Z,95356.28
2022-12-23T05:00:13.253Z,95351.44
2022-12-23T05:02:39.790Z,95364.50
2022-12-23T05:05:06.502Z,95363.69
2022-12-23T05:07:33.029Z,95358.28
2022-12-23T05:09:59.486Z,95356.13
2022-12-23T05:12:26.010Z,95351.59
2022-12-23T05:14:52.464Z,95355.00
2022-12-23T05:17:18.934Z,95356.34
2022-12-23T05:19:45.445Z,95362.19
2022-12-23T05:22:11.913Z,95364.25
2022-12-23T05:24:38.421Z,95372.69
2022-12-23T05:27:05.403Z,95364.56
2022-12-23T05:29:31.866Z,95362.84
2022-12-23T05:31:58.377Z,95368.38
2022-12-23T05:34:24.822Z,95364.69
2022-12-23T05:36:51.273Z,95355.75
2022-12-23T05:39:17.754Z,95350.91
2022-12-23T05:41:44.223Z,95355.19
2022-12-23T05:44:10.782Z,95351.19
2022-12-23T05:46:37.352Z,95336.56
2022-12-23T05:49:03.909Z,95352.53
2022-12-23T05:51:30.392Z,95343.06
2022-12-23T05:53:57.124Z,95340.53
2022-12-23T05:56:23.672Z,95322.38
2022-12-23T05:58:50.151Z,95337.31
2022-12-23T06:01:16.731Z,95339.72
2022-12-23T06:03:43.370Z,95336.88
2022-12-23T06:06:09.875Z,95336.69
2022-12-23T06:08:36.451Z,95333.38
2022-12-23T06:11:05.905Z,95343.09
2022-12-23T06:13:32.460Z,95337.03
2022-12-23T06:16:01.023Z,95338.81
2022-12-23T06:18:27.487Z,95342.59
2022-12-23T06:20:53.929Z,95338.56
2022-12-23T06:23:20.417Z,95341.72
2022-12-23T06:25:46.882Z,95347.31
2022-12-23T06:28:13.426Z,95338.09
2022-12-23T06:30:40.061Z,95344.22
2022-12-23T06:33:06.599Z,95335.81
2022-12-23T06:35:33.095Z,95332.44
2022-12-23T06:37:59.567Z,95324.38
2022-12-23T06:40:26.101Z,95332.91
2022-12-23T06:42:52.662Z,95323.25
2022-12-23T06:45:19.132Z,95340.47
2022-12-23T06:47:45.569Z,95362.97
2022-12-23T06:50:12.043Z,95357.91
2022-12-23T06:52:38.542Z,95375.09
2022-12-23T06:55:05.513Z,95364.16
2022-12-23T06:57:32.004Z,95372.03
2022-12-23T06:59:58.439Z,95375.59
2022-12-23T07:02:24.954Z,95380.69
2022-12-23T07:04:51.539Z,95384.75
2022-12-23T07:07:18.007Z,95376.41
2022-12-23T07:09:44.520Z,95371.75
2022-12-23T07:12:10.977Z,95361.72
2022-12-23T07:14:37.513Z,95359.13
2022-12-23T07:17:04.144Z,95361.59
2022-12-23T07:19:30.711Z,95362.09
2022-12-23T07:21:57.219Z,95369.66
2022-12-23T07:24:23.659Z,95365.25
2022-12-23T07:26:52.017Z,95382.38
2022-12-23T07:29:18.462Z,95386.50
2022-12-23T07:31:44.976Z,95385.50
2022-12-23T07:34:11.505Z,95394.31
2022-12-23T07:36:38.017Z,95402.91
2022-12-23T07:39:04.662Z,95399.69
2022-12-23T07:41:31.187Z,95403.13
2022-12-23T07:43:57.711Z,95403.88
2022-12-23T07:46:24.197Z,95395.84
2022-12-23T07:48:50.710Z,95392.69
2022-12-23T07:51:17.193Z,95367.25
2022-12-23T07:53:43.745Z,95380.22
2022-12-23T07:56:10.216Z,95380.38
2022-12-23T07:58:36.691Z,95385.53
2022-12-23T08:01:06.048Z,95392.09
2022-12-23T08:03:32.686Z,95385.03
2022-12-23T08:06:08.464Z,95387.78
2022-12-23T08:08:35.788Z,95392.56
2022-12-23T08:11:04.970Z,95386.16
2022-12-23T08:13:34.432Z,95386.38
2022-12-23T08:16:02.626Z,95386.28
2022-12-23T08:18:35.368Z,95390.16
2022-12-23T08:21:04.947Z,95376.94
2022-12-23T08:23:32.543Z,95369.19
2022-12-23T08:26:09.942Z,95380.41
2022-12-23T08:28:38.102Z,95389.41
2022-12-23T08:31:08.501Z,95383.63
2022-12-23T08:33:36.784Z,95385.53
2022-12-23T08:36:04.969Z,95382.00
2022-12-23T08:38:32.208Z,95392.78
2022-12-23T08:40:59.337Z,95392.94
2022-12-23T08:43:31.816Z,95398.59
2022-12-23T08:46:01.937Z,95410.06
2022-12-23T08:48:28.472Z,95403.78
2022-12-23T08:50:54.933Z,95414.91
2022-12-23T08:53:21.402Z,95412.34
2022-12-23T08:55:48.499Z,95414.13
2022-12-23T08:58:15.731Z,95419.09
2022-12-23T09:00:42.290Z,95420.38
2022-12-23T09:03:08.957Z,95426.03
2022-12-23T09:05:40.848Z,95425.19
2022-12-23T09:08:08.072Z,95434.59
2022-12-23T09:10:41.095Z,95415.88
2022-12-23T09:13:07.620Z,95425.16
2022-12-23T09:15:34.111Z,95430.44
2022-12-23T09:18:00.688Z,95429.69
2022-12-23T09:20:27.163Z,95434.06
2022-12-23T09:22:53.635Z,95435.63
2022-12-23T09:25:20.110Z,95438.97
2022-12-23T09:27:46.625Z,95440.34
2022-12-23T09:30:13.599Z,95444.78
2022-12-23T09:32:40.080Z,95457.00
2022-12-23T09:35:06.923Z,95450.19
2022-12-23T09:37:33.410Z,95455.31
2022-12-23T09:39:59.880Z,95460.69
2022-12-23T09:42:51.069Z,95463.75
2022-12-23T09:45:40.462Z,95449.41
2022-12-23T09:48:14.591Z,95452.63
2022-12-23T09:50:43.302Z,95454.47
2022-12-23T09:53:21.392Z,95450.22
2022-12-23T09:56:01.248Z,95443.03
2022-12-23T09:58:38.367Z,95430.63
2022-12-23T10:01:15.948Z,95439.25
2022-12-23T10:04:21.939Z,95430.22
2022-12-23T10:07:03.619Z,95434.38
2022-12-23T10:09:38.599Z,95424.97
2022-12-23T10:12:27.235Z,95432.19
2022-12-23T10:14:59.988Z,95424.59
2022-12-23T10:17:34.162Z,95425.47
2022-12-23T10:20:04.397Z,95434.41
2022-12-23T10:22:42.943Z,95416.91
2022-12-23T10:25:28.403Z,95420.94
2022-12-23T10:27:54.920Z,95426.69
2022-12-23T10:33:31.504Z,95423.75
2022-12-23T10:36:17.185Z,95426.59
2022-12-23T10:39:05.525Z,95427.31
2022-12-23T10:41:58.725Z,95434.78
2022-12-23T10:44:52.089Z,95433.53
2022-12-23T10:47:35.663Z,95429.22
2022-12-23T10:50:14.560Z,95428.56
2022-12-23T10:52:45.297Z,95414.19
2022-12-23T10:55:28.488Z,95422.03
2022-12-23T10:58:07.350Z,95426.41
2022-12-23T11:00:39.794Z,95426.03
2022-12-23T11:03:27.120Z,95431.84
2022-12-23T11:05:54.624Z,95426.59
2022-12-23T11:08:23.740Z,95418.25
2022-12-23T11:10:50.549Z,95419.97
2022-12-23T11:13:32.980Z,95426.69
2022-12-23T11:16:17.840Z,95413.72
2022-12-23T11:18:59.492Z,95424.81
2022-12-23T11:21:27.378Z,95425.44
2022-12-23T11:24:19.354Z,95432.06
2022-12-23T11:26:50.289Z,95415.56
2022-12-23T11:29:33.004Z,95425.97
2022-12-23T11:32:01.517Z,95434.56
2022-12-23T11:34:37.597Z,95439.34
2022-12-23T11:37:07.409Z,95436.19
2022-12-23T11:39:37.652Z,95436.63
2022-12-23T11:42:17.196Z,95438.69
2022-12-23T11:44:51.571Z,95445.88
2022-12-23T11:47:36.406Z,95446.59
2022-12-23T11:50:31.425Z,95442.75
2022-12-23T11:53:09.654Z,95436.59
2022-12-23T11:55:44.683Z,95438.72
2022-12-23T11:58:19.590Z,95435.88
2022-12-23T12:00:55.751Z,95436.38
2022-12-23T12:03:27.493Z,95436.81
2022-12-23T12:06:06.673Z,95438.25
2022-12-23T12:08:37.268Z,95432.03
2022-12-23T12:11:26.330Z,95424.44
2022-12-23T12:14:04.505Z,95417.38
2022-12-23T12:16:31.043Z,95420.22
2022-12-23T12:19:05.115Z,95422.13
2022-12-23T12:21:37.874Z,95417.00
2022-12-23T12:24:22.569Z,95420.53
2022-12-23T12:26:54.125Z,95431.97
2022-12-23T12:29:27.237Z,95422.47
2022-12-23T12:31:57.715Z,95425.13
2022-12-23T12:35:00.327Z,95423.78
2022-12-23T12:37:38.062Z,95418.19
2022-12-23T12:40:32.515Z,95409.06
2022-12-23T12:43:26.871Z,95416.56
2022-12-23T12:46:02.471Z,95414.28
2022-12-23T12:48:42.026Z,95409.50
2022-12-23T12:51:39.155Z,95414.06
2022-12-23T12:54:27.361Z,95424.38
2022-12-23T12:56:58.685Z,95422.56
2022-12-23T12:59:29.396Z,95415.66
2022-12-23T13:02:04.793Z,95409.72
2022-12-23T13:04:53.117Z,95400.09
2022-12-23T13:07:32.527Z,95403.34
2022-12-23T13:10:19.607Z,95396.31
2022-12-23T13:13:21.061Z,95392.03
2022-12-23T13:16:26.403Z,95393.28
2022-12-23T13:19:03.188Z,95383.88
2022-12-23T13:21:45.927Z,95380.03
2022-12-23T13:24:36.764Z,95385.38
2022-12-23T13:27:34.631Z,95398.88
2022-12-23T13:30:05.654Z,95393.66
2022-12-23T13:32:50.042Z,95404.75
2022-12-23T13:35:31.668Z,95395.81
2022-12-23T13:38:21.075Z,95390.81
2022-12-23T13:41:10.359Z,95387.75
2022-12-23T13:43:56.163Z,95403.88
2022-12-23T13:46:31.126Z,95396.69
2022-12-23T13:49:04.672Z,95394.38
2022-12-23T13:51:45.400Z,95410.59
2022-12-23T13:54:14.587Z,95403.25
2022-12-23T13:57:11.509Z,95401.97
2022-12-23T14:00:04.919Z,95402.72
2022-12-23T14:02:35.289Z,95396.22
2022-12-23T14:05:05.300Z,95387.47
2022-12-23T14:07:33.929Z,95384.44
2022-12-23T14:10:19.818Z,95381.25
2022-12-23T14:12:47.693Z,95383.63
2022-12-23T14:15:39.515Z,95377.06
2022-12-23T14:18:48.256Z,95386.38
2022-12-23T14:21:51.865Z,95389.09
2022-12-23T14:24:43.985Z,95397.81
2022-12-23T14:27:16.509Z,95404.34
2022-12-23T14:30:09.912Z,95395.38
2022-12-23T14:32:47.848Z,95402.88
2022-12-23T14:35:38.529Z,95398.66
2022-12-23T14:38:15.858Z,95404.97
2022-12-23T14:40:42.276Z,95403.94
2022-12-23T14:43:27.273Z,95393.16
2022-12-23T14:45:54.999Z,95389.88
2022-12-23T14:48:33.792Z,95392.56
2022-12-23T14:51:03.197Z,95387.41
2022-12-23T14:53:31.907Z,95397.06
2022-12-23T14:56:20.276Z,95412.75
2022-12-23T14:58:49.746Z,95408.91
2022-12-23T15:01:28.579Z,95404.34
2022-12-23T15:04:01.591Z,95400.53
2022-12-23T15:06:42.619Z,95398.16
2022-12-23T15:09:23.395Z,95405.88
2022-12-23T15:11:51.368Z,95405.81
2022-12-23T15:14:50.946Z,95391.03
2022-12-23T15:17:35.210Z,95400.56
2022-12-23T15:20:04.421Z,95404.75
2022-12-23T15:22:32.652Z,95408.44
2022-12-23T15:24:59.319Z,95412.56
2022-12-23T15:27:30.522Z,95418.13
2022-12-23T15:29:58.136Z,95421.97
2022-12-23T15:32:27.131Z,95422.03
2022-12-23T15:35:03.107Z,95424.22
2022-12-23T15:37:31.871Z,95427.03
2022-12-23T15:40:09.594Z,95433.66
2022-12-23T15:42:39.022Z,95430.09
2022-12-23T15:45:31.321Z,95417.78
2022-12-23T15:47:57.811Z,95430.63
2022-12-23T15:50:24.496Z,95424.13
2022-12-23T15:52:56.632Z,95412.84
2022-12-23T15:55:32.598Z,95425.91
2022-12-23T15:58:00.863Z,95418.69
2022-12-23T16:00:41.427Z,95416.56
2022-12-23T16:03:37.377Z,95406.28
2022-12-23T16:06:09.670Z,95410.69
2022-12-23T16:08:37.428Z,95423.81
2022-12-23T16:11:14.454Z,95426.63
2022-12-23T16:13:58.042Z,95440.09
2022-12-23T16:16:41.637Z,95425.00
2022-12-23T16:19:40.970Z,95432.34
2022-12-23T16:22:26.037Z,95428.22
2022-12-23T16:25:04.267Z,95428.84
2022-12-23T16:27:42.460Z,95422.75
2022-12-23T16:30:23.890Z,95423.91
2022-12-23T16:32:56.355Z,95414.34
2022-12-23T16:35:41.223Z,95432.38
2022-12-23T16:38:25.715Z,95415.28
2022-12-23T16:40:54.616Z,95424.22
2022-12-23T16:43:23.847Z,95420.84
2022-12-23T16:45:58.032Z,95415.94
2022-12-23T16:48:39.920Z,95415.31
2022-12-23T16:51:18.626Z,95409.06
2022-12-23T16:53:45.220Z,95420.78
2022-12-23T16:56:14.299Z,95440.09
2022-12-23T16:58:40.938Z,95431.63
2022-12-23T17:01:14.547Z,95430.66
2022-12-23T17:03:41.046Z,95423.75
2022-12-23T17:06:13.313Z,95408.44
2022-12-23T17:08:40.040Z,95410.31
2022-12-23T17:11:18.106Z,95412.34
2022-12-23T17:13:45.579Z,95416.44
2022-12-23T17:16:15.326Z,95421.19
2022-12-23T17:18:41.968Z,95424.19
2022-12-23T17:21:20.621Z,95443.25
2022-12-23T17:23:47.881Z,95435.19
2022-12-23T17:26:14.925Z,95430.63
2022-12-23T17:28:41.498Z,95431.69
2022-12-23T17:31:14.241Z,95440.34
2022-12-23T17:33:42.018Z,95432.09
2022-12-23T17:36:11.613Z,95432.38
2022-12-23T17:38:38.245Z,95437.59
2022-12-23T17:41:04.892Z,95435.56
2022-12-23T17:43:31.363Z,95448.81
2022-12-23T17:45:57.920Z,95450.13
2022-12-23T17:48:31.111Z,95448.59
2022-12-23T17:50:58.272Z,95452.75
2022-12-23T17:53:24.742Z,95457.69
2022-12-23T17:55:51.211Z,95456.03
2022-12-23T17:58:17.724Z,95474.66
2022-12-23T18:00:44.293Z,95476.06
2022-12-23T18:03:22.077Z,95533.00
2022-12-23T18:05:48.556Z,95540.16
2022-12-23T18:08:15.071Z,95513.38
2022-12-23T18:10:41.794Z,95521.72
2022-12-23T18:13:18.263Z,95521.38
2022-12-23T18:15:45.734Z,95516.72
2022-12-23T18:18:26.048Z,95516.00
2022-12-23T18:20:57.166Z,95523.00
2022-12-23T18:23:29.250Z,95524.50
2022-12-23T18:25:56.586Z,95513.13
2022-12-23T18:28:23.635Z,95521.84
2022-12-23T18:30:54.624Z,95537.28
2022-12-23T18:33:21.239Z,95538.38
2022-12-23T18:35:49.751Z,95553.38
2022-12-23T18:38:17.832Z,95557.38
2022-12-23T18:40:45.049Z,95547.63
2022-12-23T18:43:20.400Z,95543.41
2022-12-23T18:45:52.437Z,95549.63
2022-12-23T18:48:20.132Z,95549.59
2022-12-23T18:50:46.709Z,95551.25
2022-12-23T18:53:23.406Z,95549.78
2022-12-23T18:55:50.715Z,95554.41
2022-12-23T18:58:17.857Z,95554.91
2022-12-23T19:00:45.713Z,95552.91
2022-12-23T19:03:20.735Z,95556.25
2022-12-23T19:05:47.779Z,95552.91
2022-12-23T19:08:16.837Z,95545.41
2022-12-23T19:10:48.755Z,95527.88
2022-12-23T19:13:15.716Z,95516.88
2022-12-23T19:15:43.202Z,95513.91
2022-12-23T19:18:19.321Z,95502.09
2022-12-23T19:20:47.650Z,95495.63
2022-12-23T19:23:14.725Z,95497.41
2022-12-23T19:25:49.220Z,95503.47
2022-12-23T19:28:22.213Z,95498.38
2022-12-23T19:30:49.272Z,95499.06
2022-12-23T19:33:15.935Z,95489.13
2022-12-23T19:35:43.563Z,95490.94
2022-12-23T19:38:10.575Z,95504.84
2022-12-23T19:40:37.072Z,95518.09
2022-12-23T19:43:04.317Z,95529.53
2022-12-23T19:45:30.997Z,95530.09
2022-12-23T19:47:57.842Z,95508.88
2022-12-23T19:50:24.602Z,95494.66
2022-12-23T19:52:51.051Z,95479.47
2022-12-23T19:55:17.923Z,95481.63
2022-12-23T19:57:44.590Z,95474.31
2022-12-23T20:00:11.549Z,95480.25
2022-12-23T20:02:38.040Z,95495.66
2022-12-23T20:05:04.919Z,95485.88
2022-12-23T20:07:31.422Z,95463.78
2022-12-23T20:10:00.260Z,95460.38
2022-12-23T20:12:26.846Z,95464.41
2022-12-23T20:14:53.692Z,95460.97
2022-12-23T20:17:20.183Z,95473.66
2022-12-23T20:19:46.753Z,95482.50
2022-12-23T20:22:13.446Z,95483.81
2022-12-23T20:24:39.913Z,95488.78
2022-12-23T20:27:11.403Z,95483.59
2022-12-23T20:29:39.092Z,95492.81
2022-12-23T20:32:05.749Z,95483.56
2022-12-23T20:34:38.587Z,95473.28
2022-12-23T20:37:07.223Z,95478.19
2022-12-23T20:39:34.490Z,95475.53
2022-12-23T20:42:01.149Z,95490.84
2022-12-23T20:44:37.091Z,95458.41
2022-12-23T20:47:05.431Z,95471.53
2022-12-23T20:49:32.995Z,95476.47
2022-12-23T20:51:59.500Z,95486.06
2022-12-23T20:54:32.147Z,95474.94
2022-12-23T20:57:00.193Z,95472.72
2022-12-23T20:59:26.732Z,95465.47
2022-12-23T21:01:53.267Z,95485.63
2022-12-23T21:04:19.837Z,95486.38
2022-12-23T21:06:46.319Z,95475.47
2022-12-23T21:09:14.862Z,95467.84
2022-12-23T21:11:45.479Z,95476.47
2022-12-23T21:14:13.120Z,95472.31
2022-12-23T21:16:40.679Z,95483.94
2022-12-23T21:19:12.852Z,95487.66
2022-12-23T21:21:39.331Z,95479.66
2022-12-23T21:24:06.507Z,95469.59
2022-12-23T21:26:34.492Z,95479.28
2022-12-23T21:29:04.039Z,95475.66
2022-12-23T21:31:33.762Z,95482.16
2022-12-23T21:34:01.150Z,95493.91
2022-12-23T21:36:32.481Z,95500.81
2022-12-23T21:38:59.899Z,95486.00
2022-12-23T21:41:31.869Z,95497.53
2022-12-23T21:43:59.909Z,95504.22
2022-12-23T21:46:28.176Z,95502.50
2022-12-23T21:48:59.456Z,95495.72
2022-12-23T21:51:35.042Z,95506.59
2022-12-23T21:54:05.349Z,95507.81
2022-12-23T21:56:31.972Z,95521.72
2022-12-23T21:59:00.868Z,95503.56
2022-12-23T22:01:28.241Z,95490.00
2022-12-23T22:03:56.518Z,95492.78
2022-12-23T22:06:29.057Z,95497.00
2022-12-23T22:08:56.972Z,95477.34
2022-12-23T22:11:27.612Z,95472.53
2022-12-23T22:13:56.497Z,95490.00
2022-12-23T22:16:24.862Z,95482.59
2022-12-23T22:18:52.380Z,95474.03
2022-12-23T22:21:24.519Z,95475.09
2022-12-23T22:23:53.308Z,95487.34
2022-12-23T22:26:26.666Z,95491.00
2022-12-23T22:28:55.889Z,95469.13
2022-12-23T22:31:36.462Z,95477.16
2022-12-23T22:34:04.390Z,95471.66
2022-12-23T22:36:31.008Z,95459.34
2022-12-23T22:39:00.045Z,95452.34
2022-12-23T22:41:28.856Z,95467.03
2022-12-23T22:43:56.306Z,95468.47
2022-12-23T22:46:23.238Z,95476.59
2022-12-23T22:48:50.468Z,95465.31
2022-12-23T22:51:26.072Z,95470.16
2022-12-23T22:53:53.414Z,95482.16
2022-12-23T22:56:22.089Z,95485.97
2022-12-23T22:58:49.888Z,95507.88
2022-12-23T23:01:24.498Z,95512.19
2022-12-23T23:03:53.128Z,95498.75
2022-12-23T23:06:19.651Z,95489.50
2022-12-23T23:08:46.114Z,95470.84
2022-12-23T23:11:12.588Z,95505.97
2022-12-23T23:13:39.030Z,95488.44
2022-12-23T23:16:05.860Z,95503.38
2022-12-23T23:18:32.310Z,95510.19
2022-12-23T23:20:58.760Z,95508.41
2022-12-23T23:23:25.226Z,95522.50
2022-12-23T23:25:51.928Z,95519.84
2022-12-23T23:28:18.521Z,95533.88
2022-12-23T23:30:45.036Z,95544.81
2022-12-23T23:33:11.866Z,95551.22
2022-12-23T23:35:38.432Z,95553.22
2022-12-23T23:38:05.343Z,95558.28
2022-12-23T23:40:31.810Z,95563.69
2022-12-23T23:42:58.270Z,95560.94
2022-12-23T23:45:24.862Z,95554.09
2022-12-23T23:47:51.364Z,95552.38
2022-12-23T23:50:17.818Z,95557.94
2022-12-23T23:52:44.352Z,95563.72
2022-12-23T23:55:11.853Z,95580.69
2022-12-23T23:57:38.396Z,95588.09
